Terminal Aerodrome Forecast
Issued by NWS

Home | Current Version | Previous Version | Text Only | Print | Product List | Glossary On
Versions: 1 2 3 4 5 6 7 8 9 10 11 12 13 14 15 16 17
000
FTUS46 KMTR 201439 AAB
TAFOAK
TAF AMD
KOAK 201439Z 2015/2118 14010KT 6SM SHRA BKN030 OVC050
      TEMPO 2015/2017 2SM +SHRA OVC015
     FM201700 26020G31KT 5SM SHRA BKN015 OVC030
     FM202000 27018G27KT 6SM SHRA BKN020 OVC040
     FM210100 28019KT P6SM -SHRA BKN015 OVC040
     FM210600 28015KT P6SM -SHRA BKN015 OVC040=

USA.gov is the U.S. government's official web portal to all federal, state and local government web resources and services.